Mont Joli, Mont-Joli Airport (CYYY)

NameMont-Joli Airport
CityMont Joli
CountryCanada
ICAOCYYY
IATAYYY
Altitude52 m
CoordinatesGoogle Map
Live Air TrafficLiveATC.net
METARCYYY 121700Z 36013KT 3SM -SN DRSN BKN024 M11/M16 A3013 RMK SC7 VIS HIER N SLP208
2018-12-12 17:00:00 Wind: North (360°) 6.69 m/s - Visibility: 4828.02 m - Weather: Light Snow - Temperature: -11 °C - Dew point: -16 °C - Humidity: 66.9% - Pressure: 1020.32 hPa
Statistics

The table below shows the detailed information of all flights to/from Mont Joli, Mont-Joli Airport (CYYY).